createdAt,value
2017-10-25T00:02:17.773Z,59.83
2017-10-25T00:04:48.909Z,58.67
2017-10-25T00:07:17.794Z,66.53
2017-10-25T00:09:47.457Z,64.07
2017-10-25T00:12:17.468Z,61.07
2017-10-25T00:14:46.369Z,73.77
2017-10-25T00:17:15.569Z,49.10
2017-10-25T00:19:44.462Z,66.10
2017-10-25T00:22:13.516Z,65.27
2017-10-25T00:24:42.606Z,70.90
2017-10-25T00:27:11.816Z,62.47
2017-10-25T00:29:41.438Z,53.00
2017-10-25T00:32:10.712Z,65.13
2017-10-25T00:34:40.356Z,67.00
2017-10-25T00:37:09.325Z,74.87
2017-10-25T00:39:38.528Z,54.47
2017-10-25T00:42:08.047Z,70.00
2017-10-25T00:44:40.040Z,65.37
2017-10-25T00:47:10.852Z,63.03
2017-10-25T00:49:39.788Z,67.30
2017-10-25T00:52:09.021Z,65.87
2017-10-25T00:54:39.181Z,62.87
2017-10-25T00:57:09.233Z,57.17
2017-10-25T00:59:39.061Z,66.80
2017-10-25T01:02:08.878Z,72.23
2017-10-25T01:04:37.821Z,67.33
2017-10-25T01:07:07.638Z,66.87
2017-10-25T01:09:36.604Z,64.60
2017-10-25T01:12:05.555Z,61.87
2017-10-25T01:14:34.602Z,56.53
2017-10-25T01:17:04.612Z,62.67
2017-10-25T01:19:34.475Z,62.87
2017-10-25T01:22:03.600Z,55.30
2017-10-25T01:24:33.017Z,69.07
2017-10-25T01:27:02.051Z,70.63
2017-10-25T01:29:31.381Z,69.53
2017-10-25T01:32:00.477Z,60.97
2017-10-25T01:34:29.762Z,67.10
2017-10-25T01:36:58.833Z,68.07
2017-10-25T01:39:28.829Z,69.80
2017-10-25T01:41:58.563Z,61.10
2017-10-25T01:44:27.576Z,58.80
2017-10-25T01:46:57.889Z,62.80
2017-10-25T01:49:27.009Z,62.50
2017-10-25T01:51:56.356Z,59.67
2017-10-25T01:54:25.376Z,73.77
2017-10-25T01:56:54.589Z,75.07
2017-10-25T01:59:24.408Z,73.30
2017-10-25T02:01:53.860Z,69.07
2017-10-25T02:04:23.064Z,72.93
2017-10-25T02:06:52.349Z,67.60
2017-10-25T02:09:21.658Z,68.87
2017-10-25T02:11:50.972Z,67.50
2017-10-25T02:14:20.485Z,59.93
2017-10-25T02:16:49.761Z,75.40
2017-10-25T02:19:18.969Z,66.60
2017-10-25T02:21:48.177Z,63.90
2017-10-25T02:24:17.429Z,56.50
2017-10-25T02:26:47.769Z,59.67
2017-10-25T02:29:16.968Z,57.40
2017-10-25T02:31:46.296Z,60.60
2017-10-25T02:34:15.544Z,56.00
2017-10-25T02:36:45.807Z,60.10
2017-10-25T02:39:15.000Z,48.83
2017-10-25T02:41:44.544Z,48.37
2017-10-25T02:44:14.045Z,53.17
2017-10-25T02:46:43.319Z,58.70
2017-10-25T02:49:12.853Z,62.70
2017-10-25T02:51:42.020Z,69.00
2017-10-25T02:54:11.184Z,71.20
2017-10-25T02:56:40.373Z,62.53
2017-10-25T02:59:09.586Z,55.43
2017-10-25T03:01:38.773Z,45.97
2017-10-25T03:04:07.996Z,60.80
2017-10-25T03:06:37.518Z,40.50
2017-10-25T03:09:06.957Z,42.77
2017-10-25T03:11:36.964Z,47.40
2017-10-25T03:14:07.029Z,57.27
2017-10-25T03:16:37.213Z,58.80
2017-10-25T03:19:07.500Z,62.33
2017-10-25T03:21:36.836Z,62.40
2017-10-25T03:24:06.140Z,59.87
2017-10-25T03:26:35.466Z,63.40
2017-10-25T03:29:04.675Z,58.60
2017-10-25T03:31:33.905Z,50.47
2017-10-25T03:34:03.861Z,61.93
2017-10-25T03:36:33.108Z,59.27
2017-10-25T03:39:02.920Z,46.63
2017-10-25T03:41:32.292Z,56.93
2017-10-25T03:44:01.716Z,62.67
2017-10-25T03:46:31.259Z,51.63
2017-10-25T03:49:01.228Z,58.37
2017-10-25T03:51:30.666Z,45.27
2017-10-25T03:54:01.047Z,54.87
2017-10-25T03:56:30.985Z,53.07
2017-10-25T03:59:00.537Z,52.30
2017-10-25T04:01:29.708Z,59.80
2017-10-25T04:03:59.620Z,54.37
2017-10-25T04:06:29.619Z,51.00
2017-10-25T04:09:00.421Z,60.60
2017-10-25T04:11:29.697Z,59.47
2017-10-25T04:13:58.919Z,59.10
2017-10-25T04:16:28.443Z,62.73
2017-10-25T04:18:57.617Z,65.03
2017-10-25T04:21:27.059Z,61.30
2017-10-25T04:23:57.006Z,66.67
2017-10-25T04:26:26.981Z,67.30
2017-10-25T04:28:56.200Z,73.00
2017-10-25T04:31:26.202Z,65.53
2017-10-25T04:33:56.149Z,62.87
2017-10-25T04:36:25.421Z,62.33
2017-10-25T04:38:55.730Z,50.90
2017-10-25T04:41:25.023Z,55.53
2017-10-25T04:43:54.232Z,59.93
2017-10-25T04:46:24.457Z,61.50
2017-10-25T04:48:54.387Z,58.60
2017-10-25T04:51:23.627Z,60.67
2017-10-25T04:53:54.295Z,62.40
2017-10-25T04:56:24.366Z,59.00
2017-10-25T04:58:53.570Z,61.73
2017-10-25T05:01:23.123Z,60.60
2017-10-25T05:03:54.017Z,65.23
2017-10-25T05:06:24.060Z,69.13
2017-10-25T05:08:54.327Z,62.10
2017-10-25T05:11:23.585Z,65.83
2017-10-25T05:13:53.569Z,60.17
2017-10-25T05:16:23.104Z,68.23
2017-10-25T05:18:53.106Z,63.33
2017-10-25T05:21:22.744Z,62.50
2017-10-25T05:23:53.025Z,56.93
2017-10-25T05:26:23.288Z,76.70
2017-10-25T05:28:53.464Z,64.77
2017-10-25T05:31:23.044Z,63.00
2017-10-25T05:33:53.309Z,46.20
2017-10-25T05:36:23.154Z,51.67
2017-10-25T05:38:52.668Z,47.57
2017-10-25T05:41:22.775Z,45.20
2017-10-25T05:43:54.314Z,38.13
2017-10-25T05:46:26.224Z,29.07
2017-10-25T05:48:56.280Z,25.90
2017-10-25T05:51:26.328Z,26.60
2017-10-25T05:53:58.715Z,26.47
2017-10-25T05:56:30.664Z,31.97
2017-10-25T05:59:00.558Z,23.27
2017-10-25T06:01:33.160Z,18.70
2017-10-25T06:04:02.617Z,28.00
2017-10-25T06:06:32.087Z,31.50
2017-10-25T06:09:01.707Z,26.23
2017-10-25T06:11:31.612Z,28.47
2017-10-25T06:14:07.444Z,34.50
2017-10-25T06:16:37.873Z,31.77
2017-10-25T06:19:07.243Z,35.13
2017-10-25T06:21:37.005Z,29.70
2017-10-25T06:24:08.852Z,30.47
2017-10-25T06:26:38.319Z,31.30
2017-10-25T06:29:08.886Z,27.77
2017-10-25T06:31:39.153Z,35.63
2017-10-25T06:34:09.182Z,37.30
2017-10-25T06:36:40.124Z,31.53
2017-10-25T06:39:12.750Z,37.27
2017-10-25T06:41:42.188Z,28.47
2017-10-25T06:44:26.201Z,26.77
2017-10-25T06:46:55.824Z,30.23
2017-10-25T06:49:25.840Z,34.57
2017-10-25T06:51:56.719Z,34.90
2017-10-25T06:54:26.363Z,37.23
2017-10-25T06:56:55.665Z,33.27
2017-10-25T06:59:29.709Z,32.10
2017-10-25T07:02:04.649Z,37.20
2017-10-25T07:04:34.773Z,32.10
2017-10-25T07:07:11.522Z,35.17
2017-10-25T07:09:43.080Z,35.17
2017-10-25T07:12:13.403Z,32.33
2017-10-25T07:14:43.500Z,39.20
2017-10-25T07:17:19.231Z,41.80
2017-10-25T07:19:49.307Z,51.17
2017-10-25T07:22:18.882Z,49.73
2017-10-25T07:24:48.266Z,50.57
2017-10-25T07:27:18.378Z,51.67
2017-10-25T07:29:47.584Z,33.70
2017-10-25T07:32:17.403Z,39.03
2017-10-25T07:34:49.851Z,50.27
2017-10-25T07:37:19.848Z,47.47
2017-10-25T07:39:49.045Z,49.03
2017-10-25T07:42:18.565Z,41.17
2017-10-25T07:44:48.898Z,39.10
2017-10-25T07:47:18.122Z,38.90
2017-10-25T07:49:50.763Z,46.87
2017-10-25T07:52:21.452Z,46.70
2017-10-25T07:54:51.542Z,56.63
2017-10-25T07:57:21.853Z,52.87
2017-10-25T07:59:52.140Z,47.40
2017-10-25T08:02:22.934Z,48.77
2017-10-25T08:04:53.195Z,50.97
2017-10-25T08:07:24.373Z,45.73
2017-10-25T08:09:54.324Z,43.80
2017-10-25T08:12:23.963Z,47.37
2017-10-25T08:14:53.349Z,53.80
2017-10-25T08:17:23.860Z,55.33
2017-10-25T08:19:53.715Z,60.10
2017-10-25T08:22:23.330Z,52.00
2017-10-25T08:24:52.644Z,55.20
2017-10-25T08:27:22.228Z,48.50
2017-10-25T08:29:51.435Z,55.87
2017-10-25T08:32:20.670Z,51.73
2017-10-25T08:34:50.226Z,52.50
2017-10-25T08:37:19.648Z,40.87
2017-10-25T08:39:49.006Z,35.00
2017-10-25T08:42:20.073Z,33.20
2017-10-25T08:44:51.673Z,39.10
2017-10-25T08:47:22.705Z,31.33
2017-10-25T08:49:53.445Z,31.23
2017-10-25T08:52:23.497Z,27.93
2017-10-25T08:54:53.177Z,28.60
2017-10-25T08:57:25.028Z,32.90
2017-10-25T08:59:54.584Z,40.07
2017-10-25T09:02:24.366Z,31.10
2017-10-25T09:07:26.448Z,24.33
2017-10-25T09:09:59.780Z,21.40
2017-10-25T09:12:29.186Z,28.33
2017-10-25T09:14:58.477Z,23.57
2017-10-25T09:17:28.787Z,21.80
2017-10-25T09:19:59.012Z,21.70
2017-10-25T09:22:30.470Z,22.40
2017-10-25T09:25:00.080Z,23.73
2017-10-25T09:27:29.400Z,22.77
2017-10-25T09:29:59.490Z,17.70
2017-10-25T09:32:29.325Z,18.70
2017-10-25T09:34:59.381Z,20.40
2017-10-25T09:37:29.300Z,17.37
2017-10-25T09:40:04.970Z,15.93
2017-10-25T09:42:37.179Z,14.40
2017-10-25T09:45:10.692Z,16.17
2017-10-25T09:47:43.614Z,14.33
2017-10-25T09:50:14.130Z,15.27
2017-10-25T09:52:44.065Z,16.07
2017-10-25T09:55:13.358Z,16.90
2017-10-25T09:57:42.618Z,18.03
2017-10-25T10:00:12.219Z,18.93
2017-10-25T10:02:43.131Z,16.20
2017-10-25T10:05:13.283Z,16.53
2017-10-25T10:07:43.673Z,18.30
2017-10-25T10:10:13.700Z,17.40
2017-10-25T10:15:10.530Z,17.60
2017-10-25T10:17:39.819Z,15.37
2017-10-25T10:20:09.816Z,14.90
2017-10-25T10:22:39.410Z,16.60
2017-10-25T10:25:08.838Z,15.60
2017-10-25T10:27:38.166Z,17.30
2017-10-25T10:30:07.744Z,16.73
2017-10-25T10:32:42.275Z,15.33
2017-10-25T10:35:11.837Z,14.80
2017-10-25T10:37:41.040Z,14.57
2017-10-25T10:40:10.360Z,13.90
2017-10-25T10:42:39.972Z,14.93
2017-10-25T10:45:09.738Z,14.20
2017-10-25T10:47:39.008Z,14.97
2017-10-25T10:50:08.425Z,14.93
2017-10-25T10:52:38.361Z,13.10
2017-10-25T10:55:09.973Z,14.40
2017-10-25T10:57:39.952Z,12.63
2017-10-25T11:00:09.516Z,13.03
2017-10-25T11:02:42.605Z,14.10
2017-10-25T11:05:12.889Z,13.53
2017-10-25T11:07:42.499Z,14.43
2017-10-25T11:10:11.882Z,14.07
2017-10-25T11:12:42.031Z,13.40
2017-10-25T11:15:11.624Z,13.63
2017-10-25T11:17:41.040Z,15.03
2017-10-25T11:20:10.722Z,13.90
2017-10-25T11:22:41.445Z,17.67
2017-10-25T11:25:10.685Z,14.93
2017-10-25T11:27:40.844Z,16.37
2017-10-25T11:30:11.496Z,13.43
2017-10-25T11:32:41.069Z,13.33
2017-10-25T11:35:11.468Z,14.93
2017-10-25T11:37:41.068Z,14.70
2017-10-25T11:40:10.289Z,15.10
2017-10-25T11:42:41.259Z,12.10
2017-10-25T11:45:11.887Z,11.67
2017-10-25T11:47:41.152Z,12.00
2017-10-25T11:50:11.172Z,12.00
2017-10-25T11:52:41.224Z,12.43
2017-10-25T11:55:10.740Z,12.67
2017-10-25T11:57:40.104Z,13.53
2017-10-25T12:00:09.684Z,13.60
2017-10-25T12:02:39.978Z,14.67
2017-10-25T12:05:09.228Z,15.53
2017-10-25T12:07:38.520Z,12.37
2017-10-25T12:10:07.712Z,11.43
2017-10-25T12:12:39.415Z,11.23
2017-10-25T12:15:09.992Z,10.53
2017-10-25T12:17:40.044Z,10.63
2017-10-25T12:20:09.691Z,10.37
2017-10-25T12:22:40.876Z,9.57
2017-10-25T12:25:10.104Z,12.20
2017-10-25T12:27:39.692Z,10.53
2017-10-25T12:30:10.581Z,11.70
2017-10-25T12:32:40.245Z,10.10
2017-10-25T12:35:11.260Z,9.50
2017-10-25T12:37:40.938Z,11.43
2017-10-25T12:40:10.277Z,10.40
2017-10-25T12:42:39.871Z,9.50
2017-10-25T12:45:09.744Z,9.97
2017-10-25T12:47:38.943Z,8.93
2017-10-25T12:50:08.889Z,9.53
2017-10-25T12:52:38.884Z,9.70
2017-10-25T12:55:09.785Z,8.70
2017-10-25T12:57:40.356Z,10.60
2017-10-25T13:00:10.587Z,10.80
2017-10-25T13:02:41.496Z,10.00
2017-10-25T13:05:11.472Z,9.77
2017-10-25T13:07:41.413Z,10.57
2017-10-25T13:18:03.462Z,10.20
2017-10-25T13:20:34.033Z,10.60
2017-10-25T13:23:03.559Z,10.27
2017-10-25T13:25:33.572Z,11.27
2017-10-25T13:28:04.297Z,10.60
2017-10-25T13:30:33.653Z,11.20
2017-10-25T13:33:03.691Z,11.50
2017-10-25T13:35:33.445Z,11.70
2017-10-25T13:38:03.436Z,12.57
2017-10-25T13:40:32.693Z,12.70
2017-10-25T13:43:01.934Z,12.90
2017-10-25T13:45:32.256Z,13.20
2017-10-25T13:48:03.380Z,13.53
2017-10-25T13:50:33.356Z,14.63
2017-10-25T13:53:03.513Z,14.27
2017-10-25T13:55:33.038Z,13.63
2017-10-25T13:58:02.579Z,15.20
2017-10-25T14:00:32.492Z,14.90
2017-10-25T14:03:02.146Z,14.03
2017-10-25T14:05:32.553Z,14.70
2017-10-25T14:08:03.821Z,15.70
2017-10-25T14:10:33.043Z,16.50
2017-10-25T14:13:03.240Z,15.90
2017-10-25T14:15:33.641Z,15.50
2017-10-25T14:18:02.994Z,17.80
2017-10-25T14:20:33.364Z,17.30
2017-10-25T14:23:02.621Z,17.73
2017-10-25T14:25:31.920Z,17.07
2017-10-25T14:29:07.921Z,18.37
2017-10-25T14:31:37.136Z,18.13
2017-10-25T14:34:06.352Z,17.10
2017-10-25T14:36:35.544Z,17.53
2017-10-25T14:39:06.573Z,17.30
2017-10-25T14:41:35.794Z,18.10
2017-10-25T14:44:05.883Z,17.50
2017-10-25T14:46:35.950Z,18.17
2017-10-25T14:49:05.316Z,18.20
2017-10-25T14:51:38.433Z,17.27
2017-10-25T14:54:07.739Z,17.27
2017-10-25T14:56:37.056Z,17.23
2017-10-25T14:59:07.032Z,17.83
2017-10-25T15:01:37.249Z,16.73
2017-10-25T15:04:07.357Z,16.23
2017-10-25T15:06:37.017Z,16.73
2017-10-25T15:09:06.755Z,17.00
2017-10-25T15:11:36.396Z,16.93
2017-10-25T15:14:06.421Z,15.53
2017-10-25T15:16:35.811Z,16.90
2017-10-25T15:19:06.013Z,16.47
2017-10-25T15:21:36.544Z,17.63
2017-10-25T15:24:07.370Z,17.13
2017-10-25T15:26:36.737Z,17.33
2017-10-25T15:29:06.077Z,18.90
2017-10-25T15:31:35.855Z,17.53
2017-10-25T15:34:05.532Z,19.80
2017-10-25T15:36:34.763Z,20.33
2017-10-25T15:39:04.623Z,20.10
2017-10-25T15:41:34.596Z,21.50
2017-10-25T15:44:04.220Z,21.50
2017-10-25T15:46:34.321Z,23.60
2017-10-25T15:49:03.583Z,25.70
2017-10-25T15:51:33.084Z,26.50
2017-10-25T15:54:03.171Z,29.13
2017-10-25T15:56:33.130Z,28.90
2017-10-25T15:59:02.972Z,29.53
2017-10-25T16:01:32.294Z,30.93
2017-10-25T16:04:02.780Z,34.70
2017-10-25T16:06:32.033Z,33.47
2017-10-25T16:09:02.017Z,33.20
2017-10-25T16:11:32.259Z,31.50
2017-10-25T16:14:01.646Z,33.93
2017-10-25T16:16:31.312Z,31.10
2017-10-25T16:19:00.547Z,34.30
2017-10-25T16:21:29.729Z,34.43
2017-10-25T16:23:59.249Z,34.43
2017-10-25T16:26:28.500Z,34.30
2017-10-25T16:28:57.760Z,35.70
2017-10-25T16:31:27.457Z,36.23
2017-10-25T16:33:57.609Z,36.93
2017-10-25T16:36:27.141Z,35.80
2017-10-25T16:38:56.380Z,37.17
2017-10-25T16:41:25.592Z,34.87
2017-10-25T16:43:55.892Z,36.93
2017-10-25T16:46:25.126Z,37.10
2017-10-25T16:48:55.085Z,35.53
2017-10-25T16:51:25.052Z,38.93
2017-10-25T16:53:55.129Z,38.10
2017-10-25T16:56:24.729Z,40.23
2017-10-25T16:58:54.683Z,38.33
2017-10-25T17:01:26.009Z,38.90
2017-10-25T17:03:56.282Z,41.60
2017-10-25T17:06:26.693Z,38.40
2017-10-25T17:08:57.240Z,41.33
2017-10-25T17:11:27.571Z,41.97
2017-10-25T17:13:56.848Z,41.77
2017-10-25T17:16:26.339Z,42.23
2017-10-25T17:18:56.319Z,37.60
2017-10-25T17:21:25.845Z,36.67
2017-10-25T17:23:55.843Z,38.80
2017-10-25T17:26:25.991Z,39.63
2017-10-25T17:28:57.725Z,37.93
2017-10-25T17:31:27.651Z,39.30
2017-10-25T17:33:57.956Z,40.60
2017-10-25T17:36:27.470Z,42.27
2017-10-25T17:38:57.569Z,49.23
2017-10-25T17:41:26.965Z,43.43
2017-10-25T17:43:58.949Z,57.90
2017-10-25T17:46:28.265Z,60.97
2017-10-25T17:48:58.213Z,32.33
2017-10-25T17:51:27.487Z,37.37
2017-10-25T17:53:56.683Z,36.67
2017-10-25T17:56:26.177Z,40.67
2017-10-25T17:58:56.197Z,35.80
2017-10-25T18:01:26.887Z,35.80
2017-10-25T18:03:56.434Z,33.53
2017-10-25T18:06:26.402Z,35.07
2017-10-25T18:08:55.635Z,41.37
2017-10-25T18:14:59.624Z,39.43
2017-10-25T18:17:28.950Z,32.10
2017-10-25T18:23:59.296Z,32.37
2017-10-25T18:26:29.894Z,29.77
2017-10-25T18:28:59.910Z,29.83
2017-10-25T18:31:29.563Z,29.03
2017-10-25T18:33:58.632Z,30.70
2017-10-25T18:36:28.553Z,26.50
2017-10-25T18:38:58.078Z,29.60
2017-10-25T18:41:31.772Z,30.97
2017-10-25T18:44:01.618Z,29.17
2017-10-25T18:46:30.651Z,28.77
2017-10-25T18:48:59.449Z,31.93
2017-10-25T18:55:05.175Z,29.03
2017-10-25T18:57:36.938Z,28.87
2017-10-25T19:00:12.340Z,30.33
2017-10-25T19:02:42.628Z,27.77
2017-10-25T19:05:11.432Z,27.77
2017-10-25T19:07:41.421Z,28.43
2017-10-25T19:10:10.951Z,26.60
2017-10-25T19:12:39.926Z,29.00
2017-10-25T19:15:08.741Z,28.70
2017-10-25T19:17:37.599Z,29.23
2017-10-25T19:20:07.403Z,30.30
2017-10-25T19:22:36.466Z,31.07
2017-10-25T19:25:06.074Z,32.00
2017-10-25T19:27:34.966Z,36.50
2017-10-25T19:30:05.162Z,33.63
2017-10-25T19:32:34.725Z,33.73
2017-10-25T19:35:04.003Z,32.40
2017-10-25T19:37:33.073Z,33.50
2017-10-25T19:40:03.210Z,32.00
2017-10-25T19:42:32.274Z,31.17
2017-10-25T19:45:02.198Z,32.50
2017-10-25T19:47:31.741Z,32.67
2017-10-25T19:50:06.617Z,36.53
2017-10-25T19:52:35.578Z,33.20
2017-10-25T19:58:40.684Z,35.80
2017-10-25T20:04:46.189Z,38.17
2017-10-25T20:07:16.219Z,35.60
2017-10-25T20:09:47.837Z,37.40
2017-10-25T20:12:16.774Z,37.10
2017-10-25T20:14:45.843Z,37.93
2017-10-25T20:17:15.016Z,35.17
2017-10-25T20:19:43.944Z,34.93
2017-10-25T20:22:12.925Z,36.27
2017-10-25T20:24:42.120Z,34.47
2017-10-25T20:27:11.081Z,36.60
2017-10-25T20:29:41.955Z,37.23
2017-10-25T20:32:11.145Z,32.77
2017-10-25T20:34:40.047Z,34.73
2017-10-25T20:37:08.989Z,35.17
2017-10-25T20:39:38.196Z,34.40
2017-10-25T20:42:07.848Z,32.80
2017-10-25T20:44:37.509Z,34.13
2017-10-25T20:47:08.615Z,33.27
2017-10-25T20:49:41.080Z,29.60
2017-10-25T20:52:12.511Z,29.73
2017-10-25T20:54:42.308Z,29.27
2017-10-25T20:57:12.408Z,32.33
2017-10-25T20:59:41.312Z,32.33
2017-10-25T21:02:10.212Z,33.40
2017-10-25T21:04:40.106Z,32.37
2017-10-25T21:07:10.406Z,30.40
2017-10-25T21:09:42.293Z,33.23
2017-10-25T21:12:11.810Z,33.47
2017-10-25T21:14:40.717Z,29.57
2017-10-25T21:17:10.389Z,30.77
2017-10-25T21:19:40.236Z,30.27
2017-10-25T21:22:10.214Z,31.77
2017-10-25T21:24:39.499Z,29.67
2017-10-25T21:27:08.369Z,28.60
2017-10-25T21:29:38.009Z,28.90
2017-10-25T21:32:06.901Z,29.90
2017-10-25T21:34:36.384Z,31.10
2017-10-25T21:37:05.380Z,33.40
2017-10-25T21:39:34.621Z,31.93
2017-10-25T21:42:03.769Z,32.43
2017-10-25T21:44:33.188Z,32.63
2017-10-25T21:47:05.205Z,31.00
2017-10-25T21:49:35.632Z,32.03
2017-10-25T21:52:05.736Z,32.87
2017-10-25T21:54:34.578Z,35.33
2017-10-25T21:57:05.236Z,36.90
2017-10-25T21:59:34.273Z,38.27
2017-10-25T22:02:03.592Z,39.97
2017-10-25T22:04:32.493Z,38.73
2017-10-25T22:07:04.178Z,45.57
2017-10-25T22:09:33.069Z,44.57
2017-10-25T22:12:02.341Z,44.70
2017-10-25T22:14:31.920Z,42.40
2017-10-25T22:17:00.760Z,52.40
2017-10-25T22:19:29.623Z,48.80
2017-10-25T22:21:58.485Z,49.17
2017-10-25T22:24:27.714Z,51.60
2017-10-25T22:26:59.462Z,46.27
2017-10-25T22:29:28.349Z,46.27
2017-10-25T22:31:57.220Z,50.63
2017-10-25T22:34:26.232Z,44.90
2017-10-25T22:36:55.132Z,45.23
2017-10-25T22:39:24.052Z,45.47
2017-10-25T22:41:53.692Z,46.83
2017-10-25T22:44:23.292Z,45.57
2017-10-25T22:46:53.800Z,42.87
2017-10-25T22:49:23.970Z,41.90
2017-10-25T22:51:52.833Z,45.90
2017-10-25T22:54:22.531Z,45.27
2017-10-25T22:56:52.147Z,41.67
2017-10-25T22:59:22.314Z,38.27
2017-10-25T23:01:51.196Z,36.43
2017-10-25T23:04:20.106Z,38.37
2017-10-25T23:06:49.019Z,38.47
2017-10-25T23:09:18.705Z,39.43
2017-10-25T23:11:47.571Z,37.37
2017-10-25T23:14:16.481Z,38.57
2017-10-25T23:16:45.395Z,38.50
2017-10-25T23:19:15.368Z,41.20
2017-10-25T23:21:44.297Z,39.00
2017-10-25T23:24:16.609Z,38.07
2017-10-25T23:26:45.820Z,39.37
2017-10-25T23:29:15.418Z,39.50
2017-10-25T23:31:44.330Z,39.07
2017-10-25T23:34:13.517Z,37.40
2017-10-25T23:36:42.417Z,38.20
2017-10-25T23:39:11.322Z,35.87
2017-10-25T23:41:41.536Z,33.00
2017-10-25T23:44:10.497Z,39.97
2017-10-25T23:46:39.337Z,40.67
2017-10-25T23:49:08.494Z,42.00
2017-10-25T23:51:37.448Z,41.37
2017-10-25T23:54:06.409Z,39.97
2017-10-25T23:56:36.035Z,43.80
2017-10-25T23:59:05.678Z,42.93
